x

Stennis Test Facility (ostf1) Weather Station

7:50am - Fri 12th Feb 2016 All times are CST. -6 hours from GMT.

  • Wind
    2mph, 4mph gusts
  • Air Temp 59°f
  • Sea Pressure 1024.2mb
  • Stennis Test Facility
  • Stennis Test Facility

More Historic Weather Station data

Upgrade to MSW Pro to gain access to the past 30 days of data for over 8000 Wavebouys and Weather Stations around the globe.

Join Pro

Comparision Forecast

View Surf forecast
   
Fri 02/12 7:50am 2 4 mph 1024.2mb 59f
6:50am 2 4 mph 1024mb 58f
5:50am 2 4 mph 1023.1mb 58f
4:50am 2 4 mph 1022.5mb 58f
3:50am 4 7 mph 1021.9mb 58f
2:50am 4 9 mph 1021.6mb 59f
1:50am 4 7 mph 1021.9mb 60f
12:50am 4 7 mph 1022mb 60f
Thu 02/11 11:50pm 2 7 mph 1022.4mb 60f
10:50pm 4 9 mph 1022.6mb 61f
9:50pm 4 9 mph 1022.6mb 63f
8:50pm 4 7 mph 1022.5mb 64f
7:50pm 2 4 mph 1022.1mb 65f
6:50pm 2 7 mph 1021.4mb 67f
5:50pm 2 7 mph 1020.9mb 69f
4:50pm 4 11 mph 1020.5mb 72f
3:50pm 7 16 mph 1020.1mb 73f
2:50pm 7 13 mph 1020.1mb 73f
1:50pm 7 13 mph 1020.6mb 73f
12:50pm 7 13 mph 1021.5mb 71f
11:50am 9 16 mph 1022.7mb 68f
10:50am 4 13 mph 1023.7mb 65f
9:50am 4 11 mph 1023.8mb 63f
8:50am 4 9 mph 1023.6mb 57f
7:50am 2 4 mph 1023.4mb 48f
6:50am  -  mph 1023.1mb 43f
5:50am  -  2 mph 1023mb 45f
4:50am  -  2 mph 1022.6mb 44f
3:50am  -  2 mph 1022.8mb 44f
2:50am  -  2 mph 1023mb 45f
1:50am  -  2 mph 1023mb 47f
12:50am 2 4 mph 1023.3mb 48f
Wed 02/10 11:50pm 2 7 mph 1023.7mb 49f
10:50pm 4 11 mph 1024.1mb 49f
9:50pm 4 7 mph 1024.2mb 48f
8:50pm 4 7 mph 1024.3mb 48f
7:50pm 2 4 mph 1024.3mb 49f
6:50pm  -  mph 1024.3mb 47f
5:50pm 2 4 mph 1024.7mb 52f
4:50pm 4 7 mph 1024.8mb 55f
3:50pm 7 11 mph 1024.9mb 55f
2:50pm 7 9 mph 1025.2mb 54f
1:50pm 4 11 mph 1025.6mb 54f
12:50pm 4 13 mph 1026.7mb 54f
11:50am 7 11 mph 1027.6mb 51f
10:50am 2 7 mph 1028.1mb 48f
9:50am 4 9 mph 1028.2mb 45f
8:50am 2 7 mph 1028mb 41f
7:50am  -  9 mph 1027.7mb 35f
6:50am  -  2 mph 1027.2mb 31f
5:50am  -  mph 1026.6mb 32f
4:50am  -  mph 1025.4mb 33f
3:50am  -  2 mph 1024.8mb 36f
2:50am  -  mph 1024mb 36f
1:50am  -  2 mph 1023.5mb 40f
12:50am 2 7 mph 1023.2mb 43f
Tue 02/09 11:50pm  -  2 mph 1023mb 42f
10:50pm  -  mph 1022.7mb 42f
9:50pm  -  mph 1022.4mb 41f
8:50pm  -  2 mph 1021.8mb 47f
7:50pm 2 7 mph 1021mb 50f
6:50pm 4 11 mph 1020.2mb 51f
5:50pm 4 9 mph 1019.1mb 53f
4:50pm 9 22 mph 1018.2mb 55f
3:50pm 11 20 mph 1017.3mb 56f
2:50pm 11 22 mph 1017mb 56f
1:50pm 9 18 mph 1017.6mb 56f
12:50pm 9 20 mph 1018.5mb 53f
11:50am 9 16 mph 1019.9mb 51f
10:50am 9 18 mph 1021.3mb 48f
9:50am 7 16 mph 1021.4mb 46f
8:50am 9 18 mph 1021.6mb 44f
7:50am 9 16 mph 1021.3mb 41f
6:50am 4 9 mph 1020.8mb 40f
5:50am 4 11 mph 1020.2mb 42f
4:50am 4 11 mph 1019.5mb 43f
3:50am 4 9 mph 1019mb 44f
2:50am 7 13 mph 1019mb 45f
1:50am 7 13 mph 1019.2mb 45f
12:50am 4 9 mph 1019.3mb 45f
Mon 02/08 11:50pm 4 7 mph 1019.7mb 46f
10:50pm 2 4 mph 1019.7mb 46f
9:50pm 4 9 mph 1019.5mb 46f
8:50pm  -  mph 1019mb 42f
7:50pm 2 7 mph 1018.6mb 49f
6:50pm 4 9 mph 1017.7mb 51f
5:50pm 9 16 mph 1016.6mb 53f
4:50pm 11 22 mph 1015.6mb 56f
3:50pm 9 20 mph 1015mb 57f